sensor_id;sensor_type;location;lat;lon;timestamp;P1;durP1;ratioP1;P2;durP2;ratioP2
59854;SDS011;45732;52.850;6.896;2023-07-09T00:01:45;11.98;;;7.43;;
59854;SDS011;45732;52.850;6.896;2023-07-09T00:04:11;13.52;;;7.97;;
59854;SDS011;45732;52.850;6.896;2023-07-09T00:06:37;15.20;;;8.35;;
59854;SDS011;45732;52.850;6.896;2023-07-09T00:09:05;10.20;;;7.78;;
59854;SDS011;45732;52.850;6.896;2023-07-09T00:11:37;11.18;;;8.55;;
59854;SDS011;45732;52.850;6.896;2023-07-09T00:14:04;11.43;;;8.30;;
59854;SDS011;45732;52.850;6.896;2023-07-09T00:16:30;12.40;;;8.15;;
59854;SDS011;45732;52.850;6.896;2023-07-09T00:18:56;11.30;;;8.73;;
59854;SDS011;45732;52.850;6.896;2023-07-09T00:21:22;11.52;;;8.23;;
59854;SDS011;45732;52.850;6.896;2023-07-09T00:23:48;11.90;;;8.27;;
59854;SDS011;45732;52.850;6.896;2023-07-09T00:26:14;10.60;;;8.50;;
59854;SDS011;45732;52.850;6.896;2023-07-09T00:28:41;13.98;;;9.48;;
59854;SDS011;45732;52.850;6.896;2023-07-09T00:31:15;11.00;;;8.75;;
59854;SDS011;45732;52.850;6.896;2023-07-09T00:33:44;12.05;;;8.90;;
59854;SDS011;45732;52.850;6.896;2023-07-09T00:36:27;12.73;;;9.82;;
59854;SDS011;45732;52.850;6.896;2023-07-09T00:38:56;11.95;;;8.13;;
59854;SDS011;45732;52.850;6.896;2023-07-09T00:41:26;10.50;;;8.52;;
59854;SDS011;45732;52.850;6.896;2023-07-09T00:43:53;11.30;;;8.45;;
59854;SDS011;45732;52.850;6.896;2023-07-09T00:48:48;11.13;;;8.32;;
59854;SDS011;45732;52.850;6.896;2023-07-09T00:51:16;13.53;;;8.30;;
59854;SDS011;45732;52.850;6.896;2023-07-09T00:53:49;11.02;;;8.63;;
59854;SDS011;45732;52.850;6.896;2023-07-09T00:56:24;11.63;;;8.30;;
59854;SDS011;45732;52.850;6.896;2023-07-09T00:58:57;11.23;;;7.40;;
59854;SDS011;45732;52.850;6.896;2023-07-09T01:01:29;12.95;;;8.07;;
59854;SDS011;45732;52.850;6.896;2023-07-09T01:03:56;11.40;;;8.15;;
59854;SDS011;45732;52.850;6.896;2023-07-09T01:06:31;11.10;;;7.47;;
59854;SDS011;45732;52.850;6.896;2023-07-09T01:09:01;11.55;;;8.20;;
59854;SDS011;45732;52.850;6.896;2023-07-09T01:11:28;12.30;;;7.28;;
59854;SDS011;45732;52.850;6.896;2023-07-09T01:13:55;9.52;;;7.97;;
59854;SDS011;45732;52.850;6.896;2023-07-09T01:16:25;12.30;;;7.85;;
59854;SDS011;45732;52.850;6.896;2023-07-09T01:18:54;13.13;;;7.95;;
59854;SDS011;45732;52.850;6.896;2023-07-09T01:21:20;10.70;;;7.68;;
59854;SDS011;45732;52.850;6.896;2023-07-09T01:23:46;10.52;;;7.50;;
59854;SDS011;45732;52.850;6.896;2023-07-09T01:26:14;9.85;;;7.20;;
59854;SDS011;45732;52.850;6.896;2023-07-09T01:28:42;11.75;;;8.30;;
59854;SDS011;45732;52.850;6.896;2023-07-09T01:31:12;11.73;;;8.20;;
59854;SDS011;45732;52.850;6.896;2023-07-09T01:33:40;12.75;;;8.05;;
59854;SDS011;45732;52.850;6.896;2023-07-09T01:36:10;10.68;;;7.53;;
59854;SDS011;45732;52.850;6.896;2023-07-09T01:38:39;11.35;;;8.18;;
59854;SDS011;45732;52.850;6.896;2023-07-09T01:41:05;12.05;;;7.97;;
59854;SDS011;45732;52.850;6.896;2023-07-09T01:43:31;11.70;;;7.88;;
59854;SDS011;45732;52.850;6.896;2023-07-09T01:45:58;12.70;;;8.18;;
59854;SDS011;45732;52.850;6.896;2023-07-09T01:48:24;12.50;;;8.40;;
59854;SDS011;45732;52.850;6.896;2023-07-09T01:50:51;10.52;;;8.30;;
59854;SDS011;45732;52.850;6.896;2023-07-09T01:53:19;11.70;;;8.30;;
59854;SDS011;45732;52.850;6.896;2023-07-09T01:55:49;11.85;;;7.93;;
59854;SDS011;45732;52.850;6.896;2023-07-09T01:58:15;12.70;;;8.55;;
59854;SDS011;45732;52.850;6.896;2023-07-09T02:00:41;11.43;;;8.45;;
59854;SDS011;45732;52.850;6.896;2023-07-09T02:03:07;12.55;;;8.35;;
59854;SDS011;45732;52.850;6.896;2023-07-09T02:05:35;13.35;;;8.70;;
59854;SDS011;45732;52.850;6.896;2023-07-09T02:08:01;13.07;;;8.93;;
59854;SDS011;45732;52.850;6.896;2023-07-09T02:10:28;10.82;;;8.27;;
59854;SDS011;45732;52.850;6.896;2023-07-09T02:12:53;9.88;;;7.60;;
59854;SDS011;45732;52.850;6.896;2023-07-09T02:15:19;20.35;;;8.00;;
59854;SDS011;45732;52.850;6.896;2023-07-09T02:17:45;10.48;;;7.75;;
59854;SDS011;45732;52.850;6.896;2023-07-09T02:20:11;10.82;;;8.45;;
59854;SDS011;45732;52.850;6.896;2023-07-09T02:22:38;10.98;;;8.88;;
59854;SDS011;45732;52.850;6.896;2023-07-09T02:25:04;12.65;;;8.70;;
59854;SDS011;45732;52.850;6.896;2023-07-09T02:27:30;12.23;;;8.20;;
59854;SDS011;45732;52.850;6.896;2023-07-09T02:29:57;11.07;;;8.23;;
59854;SDS011;45732;52.850;6.896;2023-07-09T02:32:24;9.98;;;8.13;;
59854;SDS011;45732;52.850;6.896;2023-07-09T02:34:52;13.05;;;8.23;;
59854;SDS011;45732;52.850;6.896;2023-07-09T02:37:23;10.25;;;8.30;;
59854;SDS011;45732;52.850;6.896;2023-07-09T02:39:50;12.05;;;8.68;;
59854;SDS011;45732;52.850;6.896;2023-07-09T02:42:18;10.25;;;8.30;;
59854;SDS011;45732;52.850;6.896;2023-07-09T02:44:46;9.95;;;8.05;;
59854;SDS011;45732;52.850;6.896;2023-07-09T02:47:12;10.38;;;7.65;;
59854;SDS011;45732;52.850;6.896;2023-07-09T02:49:39;10.15;;;7.55;;
59854;SDS011;45732;52.850;6.896;2023-07-09T02:52:05;13.05;;;7.50;;
59854;SDS011;45732;52.850;6.896;2023-07-09T02:54:31;11.93;;;8.27;;
59854;SDS011;45732;52.850;6.896;2023-07-09T02:56:57;10.05;;;7.72;;
59854;SDS011;45732;52.850;6.896;2023-07-09T02:59:23;11.55;;;8.07;;
59854;SDS011;45732;52.850;6.896;2023-07-09T03:01:50;13.27;;;7.78;;
59854;SDS011;45732;52.850;6.896;2023-07-09T03:04:17;15.27;;;8.65;;
59854;SDS011;45732;52.850;6.896;2023-07-09T03:06:45;10.85;;;8.07;;
59854;SDS011;45732;52.850;6.896;2023-07-09T03:09:11;13.40;;;7.93;;
59854;SDS011;45732;52.850;6.896;2023-07-09T03:11:36;10.88;;;7.82;;
59854;SDS011;45732;52.850;6.896;2023-07-09T03:14:02;11.30;;;7.68;;
59854;SDS011;45732;52.850;6.896;2023-07-09T03:16:29;11.30;;;7.68;;
59854;SDS011;45732;52.850;6.896;2023-07-09T03:18:56;12.13;;;8.00;;
59854;SDS011;45732;52.850;6.896;2023-07-09T03:21:22;10.15;;;7.90;;
59854;SDS011;45732;52.850;6.896;2023-07-09T03:23:49;9.90;;;7.68;;
59854;SDS011;45732;52.850;6.896;2023-07-09T03:26:15;9.43;;;7.75;;
59854;SDS011;45732;52.850;6.896;2023-07-09T03:28:41;14.88;;;8.23;;
59854;SDS011;45732;52.850;6.896;2023-07-09T03:31:06;11.40;;;8.20;;
59854;SDS011;45732;52.850;6.896;2023-07-09T03:33:32;10.20;;;8.05;;
59854;SDS011;45732;52.850;6.896;2023-07-09T03:35:58;12.88;;;7.90;;
59854;SDS011;45732;52.850;6.896;2023-07-09T03:38:24;14.90;;;8.15;;
59854;SDS011;45732;52.850;6.896;2023-07-09T03:40:53;13.18;;;8.20;;
59854;SDS011;45732;52.850;6.896;2023-07-09T03:43:20;12.68;;;8.02;;
59854;SDS011;45732;52.850;6.896;2023-07-09T03:45:46;9.38;;;6.90;;
59854;SDS011;45732;52.850;6.896;2023-07-09T03:48:13;12.55;;;8.70;;
59854;SDS011;45732;52.850;6.896;2023-07-09T03:50:41;11.90;;;8.00;;
59854;SDS011;45732;52.850;6.896;2023-07-09T03:53:08;12.40;;;8.48;;
59854;SDS011;45732;52.850;6.896;2023-07-09T03:55:34;12.82;;;8.73;;
59854;SDS011;45732;52.850;6.896;2023-07-09T03:58:00;12.48;;;8.55;;
59854;SDS011;45732;52.850;6.896;2023-07-09T04:00:28;12.15;;;8.20;;
59854;SDS011;45732;52.850;6.896;2023-07-09T04:02:54;12.05;;;8.65;;
59854;SDS011;45732;52.850;6.896;2023-07-09T04:05:22;10.30;;;8.43;;
59854;SDS011;45732;52.850;6.896;2023-07-09T04:07:48;11.38;;;8.05;;
59854;SDS011;45732;52.850;6.896;2023-07-09T04:10:14;12.60;;;8.85;;
59854;SDS011;45732;52.850;6.896;2023-07-09T04:12:40;12.45;;;8.50;;
59854;SDS011;45732;52.850;6.896;2023-07-09T04:15:07;11.38;;;8.73;;
59854;SDS011;45732;52.850;6.896;2023-07-09T04:17:33;12.30;;;9.05;;
59854;SDS011;45732;52.850;6.896;2023-07-09T04:19:59;13.27;;;9.32;;
59854;SDS011;45732;52.850;6.896;2023-07-09T04:22:27;12.52;;;8.45;;
59854;SDS011;45732;52.850;6.896;2023-07-09T04:24:53;11.00;;;8.63;;
59854;SDS011;45732;52.850;6.896;2023-07-09T04:27:18;12.15;;;8.50;;
59854;SDS011;45732;52.850;6.896;2023-07-09T04:29:44;13.25;;;7.85;;
59854;SDS011;45732;52.850;6.896;2023-07-09T04:32:12;12.32;;;8.73;;
59854;SDS011;45732;52.850;6.896;2023-07-09T04:34:39;11.40;;;8.52;;
59854;SDS011;45732;52.850;6.896;2023-07-09T04:37:09;12.52;;;8.50;;
59854;SDS011;45732;52.850;6.896;2023-07-09T04:39:36;11.77;;;8.93;;
59854;SDS011;45732;52.850;6.896;2023-07-09T04:42:02;12.32;;;8.68;;
59854;SDS011;45732;52.850;6.896;2023-07-09T04:44:29;11.70;;;8.68;;
59854;SDS011;45732;52.850;6.896;2023-07-09T04:46:54;11.38;;;8.07;;
59854;SDS011;45732;52.850;6.896;2023-07-09T04:49:20;11.65;;;8.80;;
59854;SDS011;45732;52.850;6.896;2023-07-09T04:51:46;12.43;;;8.27;;
59854;SDS011;45732;52.850;6.896;2023-07-09T04:54:12;12.45;;;8.65;;
59854;SDS011;45732;52.850;6.896;2023-07-09T04:56:40;10.65;;;8.40;;
59854;SDS011;45732;52.850;6.896;2023-07-09T04:59:10;12.50;;;8.05;;
59854;SDS011;45732;52.850;6.896;2023-07-09T05:01:36;14.13;;;8.65;;
59854;SDS011;45732;52.850;6.896;2023-07-09T05:04:02;11.60;;;8.50;;
59854;SDS011;45732;52.850;6.896;2023-07-09T05:06:27;11.00;;;7.97;;
59854;SDS011;45732;52.850;6.896;2023-07-09T05:08:53;12.02;;;8.40;;
59854;SDS011;45732;52.850;6.896;2023-07-09T05:11:19;11.10;;;8.05;;
59854;SDS011;45732;52.850;6.896;2023-07-09T05:13:45;11.77;;;8.40;;
59854;SDS011;45732;52.850;6.896;2023-07-09T05:16:10;11.98;;;8.77;;
59854;SDS011;45732;52.850;6.896;2023-07-09T05:18:36;10.15;;;8.50;;
59854;SDS011;45732;52.850;6.896;2023-07-09T05:21:02;12.55;;;8.80;;
59854;SDS011;45732;52.850;6.896;2023-07-09T05:23:28;11.98;;;8.02;;
59854;SDS011;45732;52.850;6.896;2023-07-09T05:25:58;9.82;;;8.55;;
59854;SDS011;45732;52.850;6.896;2023-07-09T05:28:25;11.63;;;8.07;;
59854;SDS011;45732;52.850;6.896;2023-07-09T05:30:52;10.27;;;8.65;;
59854;SDS011;45732;52.850;6.896;2023-07-09T05:33:18;13.60;;;8.80;;
59854;SDS011;45732;52.850;6.896;2023-07-09T05:35:44;11.80;;;8.27;;
59854;SDS011;45732;52.850;6.896;2023-07-09T05:38:10;11.15;;;8.38;;
59854;SDS011;45732;52.850;6.896;2023-07-09T05:40:36;11.98;;;8.48;;
59854;SDS011;45732;52.850;6.896;2023-07-09T05:43:03;9.73;;;8.02;;
59854;SDS011;45732;52.850;6.896;2023-07-09T05:45:30;10.90;;;8.48;;
59854;SDS011;45732;52.850;6.896;2023-07-09T05:47:57;11.88;;;8.35;;
59854;SDS011;45732;52.850;6.896;2023-07-09T05:50:23;14.45;;;8.63;;
59854;SDS011;45732;52.850;6.896;2023-07-09T05:52:49;9.02;;;8.00;;
59854;SDS011;45732;52.850;6.896;2023-07-09T05:55:15;9.85;;;8.00;;
59854;SDS011;45732;52.850;6.896;2023-07-09T05:57:40;12.27;;;8.70;;
59854;SDS011;45732;52.850;6.896;2023-07-09T06:00:06;11.30;;;7.90;;
59854;SDS011;45732;52.850;6.896;2023-07-09T06:02:34;11.65;;;9.25;;
59854;SDS011;45732;52.850;6.896;2023-07-09T06:05:00;12.40;;;9.77;;
59854;SDS011;45732;52.850;6.896;2023-07-09T06:07:27;13.13;;;8.43;;
59854;SDS011;45732;52.850;6.896;2023-07-09T06:09:53;12.27;;;8.63;;
59854;SDS011;45732;52.850;6.896;2023-07-09T06:12:18;13.68;;;9.57;;
59854;SDS011;45732;52.850;6.896;2023-07-09T06:14:45;11.55;;;9.38;;
59854;SDS011;45732;52.850;6.896;2023-07-09T06:17:11;11.98;;;8.27;;
59854;SDS011;45732;52.850;6.896;2023-07-09T06:19:38;9.40;;;8.10;;
59854;SDS011;45732;52.850;6.896;2023-07-09T06:22:04;13.25;;;9.40;;
59854;SDS011;45732;52.850;6.896;2023-07-09T06:24:30;14.50;;;9.15;;
59854;SDS011;45732;52.850;6.896;2023-07-09T06:26:56;13.02;;;9.45;;
59854;SDS011;45732;52.850;6.896;2023-07-09T06:29:21;9.93;;;8.20;;
59854;SDS011;45732;52.850;6.896;2023-07-09T06:31:47;10.93;;;8.25;;
59854;SDS011;45732;52.850;6.896;2023-07-09T06:34:13;11.90;;;8.27;;
59854;SDS011;45732;52.850;6.896;2023-07-09T06:36:39;11.68;;;7.80;;
59854;SDS011;45732;52.850;6.896;2023-07-09T06:39:05;10.70;;;7.28;;
59854;SDS011;45732;52.850;6.896;2023-07-09T06:41:31;12.85;;;7.28;;
59854;SDS011;45732;52.850;6.896;2023-07-09T06:44:03;13.32;;;8.13;;
59854;SDS011;45732;52.850;6.896;2023-07-09T06:46:32;11.32;;;8.00;;
59854;SDS011;45732;52.850;6.896;2023-07-09T06:48:59;12.93;;;7.97;;
59854;SDS011;45732;52.850;6.896;2023-07-09T06:51:25;12.48;;;8.05;;
59854;SDS011;45732;52.850;6.896;2023-07-09T06:53:50;13.02;;;7.75;;
59854;SDS011;45732;52.850;6.896;2023-07-09T06:56:16;12.43;;;7.78;;
59854;SDS011;45732;52.850;6.896;2023-07-09T06:58:42;11.48;;;7.63;;
59854;SDS011;45732;52.850;6.896;2023-07-09T07:01:11;10.90;;;7.22;;
59854;SDS011;45732;52.850;6.896;2023-07-09T07:03:37;11.48;;;7.70;;
59854;SDS011;45732;52.850;6.896;2023-07-09T07:06:03;13.93;;;7.53;;
59854;SDS011;45732;52.850;6.896;2023-07-09T07:08:31;12.50;;;8.30;;
59854;SDS011;45732;52.850;6.896;2023-07-09T07:10:59;11.45;;;7.30;;
59854;SDS011;45732;52.850;6.896;2023-07-09T07:13:40;10.65;;;7.90;;
59854;SDS011;45732;52.850;6.896;2023-07-09T07:16:07;11.88;;;7.32;;
59854;SDS011;45732;52.850;6.896;2023-07-09T07:18:34;11.65;;;7.70;;
59854;SDS011;45732;52.850;6.896;2023-07-09T07:21:01;12.00;;;7.80;;
59854;SDS011;45732;52.850;6.896;2023-07-09T07:23:26;11.90;;;7.38;;
59854;SDS011;45732;52.850;6.896;2023-07-09T07:25:52;11.70;;;7.80;;
59854;SDS011;45732;52.850;6.896;2023-07-09T07:28:19;10.98;;;8.00;;
59854;SDS011;45732;52.850;6.896;2023-07-09T07:30:45;13.40;;;7.57;;
59854;SDS011;45732;52.850;6.896;2023-07-09T07:33:14;10.27;;;7.60;;
59854;SDS011;45732;52.850;6.896;2023-07-09T07:35:41;11.65;;;8.02;;
59854;SDS011;45732;52.850;6.896;2023-07-09T07:38:06;11.65;;;7.78;;
59854;SDS011;45732;52.850;6.896;2023-07-09T07:40:32;13.52;;;7.78;;
59854;SDS011;45732;52.850;6.896;2023-07-09T07:42:58;10.80;;;7.63;;
59854;SDS011;45732;52.850;6.896;2023-07-09T07:45:24;10.55;;;7.28;;
59854;SDS011;45732;52.850;6.896;2023-07-09T07:47:50;9.65;;;7.18;;
59854;SDS011;45732;52.850;6.896;2023-07-09T07:50:17;12.43;;;8.07;;
59854;SDS011;45732;52.850;6.896;2023-07-09T07:52:43;10.95;;;7.40;;
59854;SDS011;45732;52.850;6.896;2023-07-09T07:55:08;11.63;;;7.65;;
59854;SDS011;45732;52.850;6.896;2023-07-09T07:57:35;10.95;;;7.68;;
59854;SDS011;45732;52.850;6.896;2023-07-09T08:00:01;11.13;;;7.03;;
59854;SDS011;45732;52.850;6.896;2023-07-09T08:02:28;11.13;;;7.68;;
59854;SDS011;45732;52.850;6.896;2023-07-09T08:04:54;14.95;;;8.02;;
59854;SDS011;45732;52.850;6.896;2023-07-09T08:07:19;13.52;;;8.02;;
59854;SDS011;45732;52.850;6.896;2023-07-09T08:09:46;10.93;;;7.45;;
59854;SDS011;45732;52.850;6.896;2023-07-09T08:12:12;11.48;;;7.55;;
59854;SDS011;45732;52.850;6.896;2023-07-09T08:14:39;11.77;;;7.43;;
59854;SDS011;45732;52.850;6.896;2023-07-09T08:17:06;10.27;;;6.80;;
59854;SDS011;45732;52.850;6.896;2023-07-09T08:19:43;13.57;;;7.70;;
59854;SDS011;45732;52.850;6.896;2023-07-09T08:22:10;20.42;;;7.82;;
59854;SDS011;45732;52.850;6.896;2023-07-09T08:24:36;13.32;;;7.85;;
59854;SDS011;45732;52.850;6.896;2023-07-09T08:27:02;11.05;;;7.05;;
59854;SDS011;45732;52.850;6.896;2023-07-09T08:29:28;12.25;;;7.35;;
59854;SDS011;45732;52.850;6.896;2023-07-09T08:31:54;14.45;;;7.82;;
59854;SDS011;45732;52.850;6.896;2023-07-09T08:34:20;11.68;;;7.15;;
59854;SDS011;45732;52.850;6.896;2023-07-09T08:36:45;10.57;;;7.40;;
59854;SDS011;45732;52.850;6.896;2023-07-09T08:39:11;10.45;;;6.55;;
59854;SDS011;45732;52.850;6.896;2023-07-09T08:41:39;11.45;;;6.90;;
59854;SDS011;45732;52.850;6.896;2023-07-09T08:49:43;13.02;;;7.95;;
59854;SDS011;45732;52.850;6.896;2023-07-09T08:52:36;12.48;;;8.07;;
59854;SDS011;45732;52.850;6.896;2023-07-09T08:55:26;12.40;;;7.38;;
59854;SDS011;45732;52.850;6.896;2023-07-09T09:06:03;10.82;;;7.05;;
59854;SDS011;45732;52.850;6.896;2023-07-09T09:08:47;9.98;;;7.05;;
59854;SDS011;45732;52.850;6.896;2023-07-09T09:13:55;14.80;;;7.93;;
59854;SDS011;45732;52.850;6.896;2023-07-09T09:16:27;10.55;;;7.30;;
59854;SDS011;45732;52.850;6.896;2023-07-09T09:18:57;11.75;;;7.40;;
59854;SDS011;45732;52.850;6.896;2023-07-09T09:21:34;11.75;;;7.40;;
59854;SDS011;45732;52.850;6.896;2023-07-09T09:24:26;12.80;;;7.72;;
59854;SDS011;45732;52.850;6.896;2023-07-09T09:26:57;11.77;;;6.97;;
59854;SDS011;45732;52.850;6.896;2023-07-09T09:29:24;12.40;;;7.28;;
59854;SDS011;45732;52.850;6.896;2023-07-09T09:31:52;10.45;;;7.18;;
59854;SDS011;45732;52.850;6.896;2023-07-09T09:34:24;10.70;;;7.20;;
59854;SDS011;45732;52.850;6.896;2023-07-09T09:36:55;12.07;;;6.93;;
59854;SDS011;45732;52.850;6.896;2023-07-09T09:39:24;10.88;;;7.35;;
59854;SDS011;45732;52.850;6.896;2023-07-09T09:41:51;12.90;;;7.20;;
59854;SDS011;45732;52.850;6.896;2023-07-09T09:44:26;11.90;;;7.10;;
59854;SDS011;45732;52.850;6.896;2023-07-09T09:46:55;12.63;;;7.67;;
59854;SDS011;45732;52.850;6.896;2023-07-09T09:49:22;11.07;;;7.15;;
59854;SDS011;45732;52.850;6.896;2023-07-09T09:51:48;11.50;;;7.32;;
59854;SDS011;45732;52.850;6.896;2023-07-09T09:54:18;10.88;;;7.03;;
59854;SDS011;45732;52.850;6.896;2023-07-09T09:56:47;9.93;;;6.65;;
59854;SDS011;45732;52.850;6.896;2023-07-09T09:59:19;11.63;;;7.32;;
59854;SDS011;45732;52.850;6.896;2023-07-09T10:01:47;10.90;;;7.00;;
59854;SDS011;45732;52.850;6.896;2023-07-09T10:04:21;10.32;;;6.43;;
59854;SDS011;45732;52.850;6.896;2023-07-09T10:06:49;11.90;;;6.53;;
59854;SDS011;45732;52.850;6.896;2023-07-09T10:12:34;10.23;;;6.65;;
59854;SDS011;45732;52.850;6.896;2023-07-09T10:25:53;10.50;;;5.90;;
59854;SDS011;45732;52.850;6.896;2023-07-09T10:30:56;12.88;;;6.75;;
59854;SDS011;45732;52.850;6.896;2023-07-09T10:41:43;11.40;;;5.32;;
59854;SDS011;45732;52.850;6.896;2023-07-09T10:44:13;10.60;;;4.93;;
59854;SDS011;45732;52.850;6.896;2023-07-09T10:46:46;9.55;;;4.78;;
59854;SDS011;45732;52.850;6.896;2023-07-09T10:49:15;10.95;;;5.30;;
59854;SDS011;45732;52.850;6.896;2023-07-09T10:54:30;10.73;;;5.18;;
59854;SDS011;45732;52.850;6.896;2023-07-09T10:57:28;10.63;;;5.00;;
59854;SDS011;45732;52.850;6.896;2023-07-09T10:59:54;9.70;;;5.47;;
59854;SDS011;45732;52.850;6.896;2023-07-09T11:02:29;8.07;;;5.30;;
59854;SDS011;45732;52.850;6.896;2023-07-09T11:05:01;8.80;;;5.25;;
59854;SDS011;45732;52.850;6.896;2023-07-09T11:09:55;8.60;;;5.00;;
59854;SDS011;45732;52.850;6.896;2023-07-09T11:12:26;10.65;;;5.50;;
59854;SDS011;45732;52.850;6.896;2023-07-09T11:17:37;10.75;;;5.68;;
59854;SDS011;45732;52.850;6.896;2023-07-09T11:20:16;9.93;;;5.65;;
59854;SDS011;45732;52.850;6.896;2023-07-09T11:22:50;10.13;;;5.28;;
59854;SDS011;45732;52.850;6.896;2023-07-09T11:25:27;11.80;;;5.50;;
59854;SDS011;45732;52.850;6.896;2023-07-09T11:28:05;9.38;;;5.25;;
59854;SDS011;45732;52.850;6.896;2023-07-09T11:30:32;11.52;;;5.57;;
59854;SDS011;45732;52.850;6.896;2023-07-09T11:32:59;7.88;;;5.18;;
59854;SDS011;45732;52.850;6.896;2023-07-09T11:35:28;9.70;;;5.15;;
59854;SDS011;45732;52.850;6.896;2023-07-09T11:38:07;10.27;;;5.45;;
59854;SDS011;45732;52.850;6.896;2023-07-09T11:40:45;12.02;;;5.25;;
59854;SDS011;45732;52.850;6.896;2023-07-09T11:43:33;9.98;;;5.65;;
59854;SDS011;45732;52.850;6.896;2023-07-09T11:46:10;8.35;;;5.07;;
59854;SDS011;45732;52.850;6.896;2023-07-09T11:48:39;10.68;;;5.05;;
59854;SDS011;45732;52.850;6.896;2023-07-09T11:51:08;10.68;;;5.50;;
59854;SDS011;45732;52.850;6.896;2023-07-09T11:53:52;9.93;;;5.45;;
59854;SDS011;45732;52.850;6.896;2023-07-09T11:56:23;9.48;;;5.18;;
59854;SDS011;45732;52.850;6.896;2023-07-09T11:58:51;10.23;;;5.20;;
59854;SDS011;45732;52.850;6.896;2023-07-09T12:01:22;9.45;;;4.97;;
59854;SDS011;45732;52.850;6.896;2023-07-09T12:03:51;10.38;;;4.93;;
59854;SDS011;45732;52.850;6.896;2023-07-09T12:06:20;8.57;;;4.85;;
59854;SDS011;45732;52.850;6.896;2023-07-09T12:08:48;11.82;;;5.20;;
59854;SDS011;45732;52.850;6.896;2023-07-09T12:13:47;8.93;;;4.95;;
59854;SDS011;45732;52.850;6.896;2023-07-09T12:16:29;9.55;;;5.40;;
59854;SDS011;45732;52.850;6.896;2023-07-09T12:18:58;6.88;;;4.50;;
59854;SDS011;45732;52.850;6.896;2023-07-09T12:21:24;8.63;;;4.93;;
59854;SDS011;45732;52.850;6.896;2023-07-09T12:23:50;7.88;;;4.45;;
59854;SDS011;45732;52.850;6.896;2023-07-09T12:26:18;7.85;;;4.90;;
59854;SDS011;45732;52.850;6.896;2023-07-09T12:29:02;8.07;;;4.65;;
59854;SDS011;45732;52.850;6.896;2023-07-09T12:31:30;7.85;;;4.57;;
59854;SDS011;45732;52.850;6.896;2023-07-09T12:33:57;9.38;;;4.72;;
59854;SDS011;45732;52.850;6.896;2023-07-09T12:36:27;7.40;;;4.32;;
59854;SDS011;45732;52.850;6.896;2023-07-09T12:38:55;9.93;;;4.20;;
59854;SDS011;45732;52.850;6.896;2023-07-09T12:41:28;8.15;;;4.88;;
59854;SDS011;45732;52.850;6.896;2023-07-09T12:44:01;8.18;;;4.18;;
59854;SDS011;45732;52.850;6.896;2023-07-09T12:46:28;8.68;;;4.82;;
59854;SDS011;45732;52.850;6.896;2023-07-09T12:48:54;8.18;;;4.63;;
59854;SDS011;45732;52.850;6.896;2023-07-09T12:51:22;8.68;;;4.78;;
59854;SDS011;45732;52.850;6.896;2023-07-09T12:54:00;8.85;;;4.72;;
59854;SDS011;45732;52.850;6.896;2023-07-09T12:56:26;11.32;;;4.93;;
59854;SDS011;45732;52.850;6.896;2023-07-09T12:58:56;10.50;;;4.68;;
59854;SDS011;45732;52.850;6.896;2023-07-09T13:01:22;10.73;;;4.10;;
59854;SDS011;45732;52.850;6.896;2023-07-09T13:03:56;8.80;;;4.35;;
59854;SDS011;45732;52.850;6.896;2023-07-09T13:08:48;7.88;;;4.43;;
59854;SDS011;45732;52.850;6.896;2023-07-09T13:11:24;8.68;;;4.35;;
59854;SDS011;45732;52.850;6.896;2023-07-09T13:13:55;10.95;;;4.40;;
59854;SDS011;45732;52.850;6.896;2023-07-09T13:16:22;8.85;;;4.43;;
59854;SDS011;45732;52.850;6.896;2023-07-09T13:18:48;9.95;;;4.20;;
59854;SDS011;45732;52.850;6.896;2023-07-09T13:21:16;7.50;;;4.07;;
59854;SDS011;45732;52.850;6.896;2023-07-09T13:23:43;9.05;;;4.80;;
59854;SDS011;45732;52.850;6.896;2023-07-09T13:26:08;9.80;;;4.90;;
59854;SDS011;45732;52.850;6.896;2023-07-09T13:28:34;6.72;;;3.88;;
59854;SDS011;45732;52.850;6.896;2023-07-09T13:31:01;8.75;;;4.43;;
59854;SDS011;45732;52.850;6.896;2023-07-09T13:33:40;8.57;;;4.15;;
59854;SDS011;45732;52.850;6.896;2023-07-09T13:36:06;9.07;;;4.95;;
59854;SDS011;45732;52.850;6.896;2023-07-09T13:38:33;7.50;;;4.30;;
59854;SDS011;45732;52.850;6.896;2023-07-09T13:41:00;8.77;;;4.35;;
59854;SDS011;45732;52.850;6.896;2023-07-09T13:43:34;8.30;;;4.28;;
59854;SDS011;45732;52.850;6.896;2023-07-09T13:46:02;7.18;;;3.95;;
59854;SDS011;45732;52.850;6.896;2023-07-09T13:48:29;9.57;;;4.03;;
59854;SDS011;45732;52.850;6.896;2023-07-09T13:50:57;8.90;;;4.65;;
59854;SDS011;45732;52.850;6.896;2023-07-09T13:53:24;6.75;;;4.07;;
59854;SDS011;45732;52.850;6.896;2023-07-09T13:55:55;8.57;;;3.97;;
59854;SDS011;45732;52.850;6.896;2023-07-09T13:58:21;8.38;;;3.45;;
59854;SDS011;45732;52.850;6.896;2023-07-09T14:00:50;8.73;;;4.13;;
59854;SDS011;45732;52.850;6.896;2023-07-09T14:03:24;9.45;;;4.40;;
59854;SDS011;45732;52.850;6.896;2023-07-09T14:05:51;10.13;;;4.70;;
59854;SDS011;45732;52.850;6.896;2023-07-09T14:08:17;6.35;;;3.90;;
59854;SDS011;45732;52.850;6.896;2023-07-09T14:10:45;6.97;;;3.92;;
59854;SDS011;45732;52.850;6.896;2023-07-09T14:13:15;7.72;;;4.15;;
59854;SDS011;45732;52.850;6.896;2023-07-09T14:15:42;8.90;;;4.20;;
59854;SDS011;45732;52.850;6.896;2023-07-09T14:18:12;9.07;;;4.47;;
59854;SDS011;45732;52.850;6.896;2023-07-09T14:20:40;8.43;;;4.05;;
59854;SDS011;45732;52.850;6.896;2023-07-09T14:23:08;8.48;;;4.20;;
59854;SDS011;45732;52.850;6.896;2023-07-09T14:25:38;6.70;;;3.70;;
59854;SDS011;45732;52.850;6.896;2023-07-09T14:28:08;7.65;;;4.35;;
59854;SDS011;45732;52.850;6.896;2023-07-09T14:30:37;8.55;;;4.35;;
59854;SDS011;45732;52.850;6.896;2023-07-09T14:33:04;7.43;;;4.40;;
59854;SDS011;45732;52.850;6.896;2023-07-09T14:35:33;8.57;;;4.15;;
59854;SDS011;45732;52.850;6.896;2023-07-09T14:38:01;8.57;;;4.72;;
59854;SDS011;45732;52.850;6.896;2023-07-09T14:40:29;8.20;;;4.70;;
59854;SDS011;45732;52.850;6.896;2023-07-09T14:42:54;14.88;;;5.30;;
59854;SDS011;45732;52.850;6.896;2023-07-09T14:45:22;9.38;;;4.28;;
59854;SDS011;45732;52.850;6.896;2023-07-09T14:47:51;10.70;;;4.40;;
59854;SDS011;45732;52.850;6.896;2023-07-09T14:50:18;9.10;;;4.53;;
59854;SDS011;45732;52.850;6.896;2023-07-09T14:52:45;11.35;;;4.80;;
59854;SDS011;45732;52.850;6.896;2023-07-09T14:55:16;10.15;;;4.35;;
59854;SDS011;45732;52.850;6.896;2023-07-09T14:57:44;8.63;;;4.13;;
59854;SDS011;45732;52.850;6.896;2023-07-09T15:00:17;10.25;;;4.40;;
59854;SDS011;45732;52.850;6.896;2023-07-09T15:02:46;8.85;;;4.68;;
59854;SDS011;45732;52.850;6.896;2023-07-09T15:07:45;7.82;;;4.10;;
59854;SDS011;45732;52.850;6.896;2023-07-09T15:10:14;7.50;;;4.35;;
59854;SDS011;45732;52.850;6.896;2023-07-09T15:12:47;7.78;;;4.25;;
59854;SDS011;45732;52.850;6.896;2023-07-09T15:17:43;11.05;;;4.60;;
59854;SDS011;45732;52.850;6.896;2023-07-09T15:20:16;11.77;;;4.78;;
59854;SDS011;45732;52.850;6.896;2023-07-09T15:22:47;12.10;;;4.80;;
59854;SDS011;45732;52.850;6.896;2023-07-09T15:25:21;10.48;;;4.80;;
59854;SDS011;45732;52.850;6.896;2023-07-09T15:27:48;10.43;;;4.38;;
59854;SDS011;45732;52.850;6.896;2023-07-09T15:30:19;7.47;;;4.35;;
59854;SDS011;45732;52.850;6.896;2023-07-09T15:32:58;10.18;;;4.93;;
59854;SDS011;45732;52.850;6.896;2023-07-09T15:35:26;7.75;;;4.60;;
59854;SDS011;45732;52.850;6.896;2023-07-09T15:38:01;16.00;;;6.28;;
59854;SDS011;45732;52.850;6.896;2023-07-09T15:40:42;16.42;;;6.65;;
59854;SDS011;45732;52.850;6.896;2023-07-09T15:43:08;16.25;;;6.43;;
59854;SDS011;45732;52.850;6.896;2023-07-09T15:45:38;12.57;;;5.80;;
59854;SDS011;45732;52.850;6.896;2023-07-09T15:48:08;15.77;;;6.38;;